createdAt,value
2018-04-10T00:00:52.563Z,5.10
2018-04-10T00:03:20.611Z,4.23
2018-04-10T00:05:48.675Z,14.50
2018-04-10T00:08:16.736Z,5.23
2018-04-10T00:10:44.820Z,4.67
2018-04-10T00:13:12.889Z,10.23
2018-04-10T00:15:40.960Z,8.20
2018-04-10T00:18:09.016Z,8.90
2018-04-10T00:20:37.088Z,4.07
2018-04-10T00:23:05.143Z,8.38
2018-04-10T00:25:33.217Z,7.05
2018-04-10T00:28:01.308Z,9.93
2018-04-10T00:30:29.360Z,11.30
2018-04-10T00:32:57.431Z,8.13
2018-04-10T00:35:25.490Z,7.33
2018-04-10T00:37:53.562Z,7.00
2018-04-10T00:40:21.611Z,8.07
2018-04-10T00:42:49.675Z,4.50
2018-04-10T00:45:17.723Z,6.40
2018-04-10T00:47:45.791Z,6.13
2018-04-10T00:50:13.853Z,13.30
2018-04-10T00:52:41.917Z,8.70
2018-04-10T00:55:09.971Z,4.20
2018-04-10T00:57:38.029Z,5.20
2018-04-10T01:00:06.087Z,12.10
2018-04-10T01:02:34.151Z,5.27
2018-04-10T01:05:02.199Z,4.73
2018-04-10T01:07:30.256Z,4.83
2018-04-10T01:09:58.312Z,7.12
2018-04-10T01:12:26.376Z,5.10
2018-04-10T01:14:54.432Z,5.90
2018-04-10T01:17:22.497Z,8.77
2018-04-10T01:19:50.543Z,5.00
2018-04-10T01:22:18.599Z,5.90
2018-04-10T01:24:46.651Z,7.80
2018-04-10T01:27:14.707Z,5.93
2018-04-10T01:29:42.768Z,7.00
2018-04-10T01:32:11.840Z,6.40
2018-04-10T01:34:39.892Z,8.33
2018-04-10T01:37:07.951Z,6.07
2018-04-10T01:39:36.007Z,5.73
2018-04-10T01:42:04.085Z,4.53
2018-04-10T01:44:32.143Z,9.50
2018-04-10T01:47:00.204Z,7.37
2018-04-10T01:49:28.260Z,8.40
2018-04-10T01:51:56.335Z,18.30
2018-04-10T01:54:24.387Z,4.93
2018-04-10T01:56:52.457Z,13.53
2018-04-10T01:59:20.504Z,7.33
2018-04-10T02:01:48.574Z,7.50
2018-04-10T02:04:16.652Z,5.53
2018-04-10T02:06:44.687Z,6.10
2018-04-10T02:09:12.749Z,5.13
2018-04-10T02:11:40.806Z,6.30
2018-04-10T02:14:08.859Z,5.37
2018-04-10T02:16:36.922Z,4.30
2018-04-10T02:19:05.009Z,5.40
2018-04-10T02:21:33.066Z,5.03
2018-04-10T02:24:01.147Z,6.10
2018-04-10T02:26:29.191Z,6.20
2018-04-10T02:28:57.281Z,5.28
2018-04-10T02:31:25.325Z,5.40
2018-04-10T02:33:53.380Z,13.33
2018-04-10T02:36:21.444Z,8.77
2018-04-10T02:38:49.492Z,7.10
2018-04-10T02:41:17.551Z,5.40
2018-04-10T02:43:45.617Z,13.50
2018-04-10T02:46:13.667Z,4.67
2018-04-10T02:48:41.731Z,6.20
2018-04-10T02:51:09.787Z,6.18
2018-04-10T02:53:37.843Z,5.33
2018-04-10T02:56:05.900Z,6.12
2018-04-10T02:58:33.975Z,9.30
2018-04-10T03:01:02.027Z,9.35
2018-04-10T03:03:30.099Z,8.07
2018-04-10T03:05:58.153Z,4.97
2018-04-10T03:08:26.220Z,8.55
2018-04-10T03:10:54.278Z,5.00
2018-04-10T03:13:22.339Z,6.47
2018-04-10T03:15:50.396Z,12.23
2018-04-10T03:18:18.451Z,6.77
2018-04-10T03:20:46.551Z,5.13
2018-04-10T03:23:14.560Z,6.77
2018-04-10T03:25:42.615Z,15.30
2018-04-10T03:28:10.675Z,7.93
2018-04-10T03:30:38.724Z,11.70
2018-04-10T03:33:06.793Z,16.05
2018-04-10T03:35:34.856Z,7.83
2018-04-10T03:38:02.955Z,8.25
2018-04-10T03:40:31.017Z,5.87
2018-04-10T03:42:59.084Z,11.03
2018-04-10T03:45:27.135Z,6.33
2018-04-10T03:47:55.216Z,9.32
2018-04-10T03:50:23.248Z,7.43
2018-04-10T03:52:52.429Z,9.87
2018-04-10T03:55:21.475Z,5.83
2018-04-10T03:57:49.541Z,6.53
2018-04-10T04:00:17.587Z,6.27
2018-04-10T04:02:45.655Z,16.40
2018-04-10T04:05:13.703Z,7.20
2018-04-10T04:07:41.770Z,8.33
2018-04-10T04:10:09.827Z,6.23
2018-04-10T04:12:37.895Z,7.57
2018-04-10T04:15:05.950Z,7.05
2018-04-10T04:17:34.016Z,13.97
2018-04-10T04:20:19.641Z,11.95
2018-04-10T04:22:47.701Z,6.90
2018-04-10T04:25:15.752Z,11.53
2018-04-10T04:27:43.827Z,6.30
2018-04-10T04:30:11.871Z,7.23
2018-04-10T04:32:39.929Z,13.17
2018-04-10T04:35:08.008Z,9.77
2018-04-10T04:37:36.059Z,6.20
2018-04-10T04:40:04.120Z,5.95
2018-04-10T04:42:32.180Z,19.73
2018-04-10T04:45:00.256Z,9.20
2018-04-10T04:47:28.298Z,11.10
2018-04-10T04:49:56.361Z,12.02
2018-04-10T04:52:24.403Z,8.37
2018-04-10T04:54:52.468Z,13.83
2018-04-10T04:57:20.530Z,11.90
2018-04-10T04:59:48.595Z,13.90
2018-04-10T05:02:17.280Z,13.27
2018-04-10T05:04:45.343Z,12.47
2018-04-10T05:07:13.399Z,12.80
2018-04-10T05:09:41.456Z,8.07
2018-04-10T05:12:10.496Z,17.70
2018-04-10T05:14:38.577Z,14.70
2018-04-10T05:17:06.618Z,16.67
2018-04-10T05:19:34.680Z,13.50
2018-04-10T05:22:02.755Z,16.63
2018-04-10T05:24:30.811Z,11.87
2018-04-10T05:26:58.871Z,9.55
2018-04-10T05:29:26.932Z,21.27
2018-04-10T05:31:55.000Z,14.47
2018-04-10T05:34:23.054Z,11.57
2018-04-10T05:36:52.135Z,12.74
2018-04-10T05:39:20.200Z,13.57
2018-04-10T05:41:48.270Z,24.15
2018-04-10T05:44:16.329Z,18.93
2018-04-10T05:46:44.380Z,17.13
2018-04-10T05:49:12.444Z,24.57
2018-04-10T05:51:40.512Z,13.60
2018-04-10T05:54:08.570Z,22.93
2018-04-10T05:56:36.620Z,13.53
2018-04-10T05:59:04.695Z,15.07
2018-04-10T06:01:32.751Z,20.47
2018-04-10T06:04:00.879Z,14.93
2018-04-10T06:06:28.883Z,16.90
2018-04-10T06:08:56.935Z,13.65
2018-04-10T06:11:24.996Z,19.03
2018-04-10T06:13:53.080Z,21.17
2018-04-10T06:16:21.144Z,29.33
2018-04-10T06:18:49.216Z,18.40
2018-04-10T06:21:17.268Z,28.33
2018-04-10T06:23:45.336Z,31.62
2018-04-10T06:26:13.395Z,32.43
2018-04-10T06:28:41.463Z,21.23
2018-04-10T06:31:09.531Z,29.67
2018-04-10T06:33:37.600Z,28.13
2018-04-10T06:36:05.656Z,30.67
2018-04-10T06:38:33.716Z,20.43
2018-04-10T06:41:01.805Z,26.13
2018-04-10T06:43:29.862Z,20.10
2018-04-10T06:45:57.938Z,16.33
2018-04-10T06:48:26.000Z,36.73
2018-04-10T06:50:54.080Z,37.10
2018-04-10T06:53:22.141Z,25.00
2018-04-10T06:55:50.203Z,28.73
2018-04-10T06:58:18.283Z,28.43
2018-04-10T07:00:46.368Z,33.13
2018-04-10T07:03:14.440Z,29.70
2018-04-10T07:05:42.507Z,38.40
2018-04-10T07:08:10.589Z,30.70
2018-04-10T07:10:38.680Z,28.03
2018-04-10T07:13:06.716Z,33.38
2018-04-10T07:15:34.796Z,38.27
2018-04-10T07:18:02.856Z,41.65
2018-04-10T07:20:30.937Z,26.03
2018-04-10T07:22:59.002Z,38.70
2018-04-10T07:25:27.069Z,34.10
2018-04-10T07:27:55.156Z,30.40
2018-04-10T07:30:23.208Z,32.93
2018-04-10T07:32:52.127Z,31.33
2018-04-10T07:35:20.191Z,42.60
2018-04-10T07:37:48.252Z,36.40
2018-04-10T07:40:16.320Z,34.50
2018-04-10T07:42:44.379Z,43.93
2018-04-10T07:45:12.466Z,28.07
2018-04-10T07:47:40.536Z,37.57
2018-04-10T07:50:08.616Z,40.17
2018-04-10T07:52:36.684Z,32.43
2018-04-10T07:55:04.765Z,48.28
2018-04-10T07:57:32.818Z,35.83
2018-04-10T08:00:00.896Z,39.35
2018-04-10T08:02:28.948Z,30.37
2018-04-10T08:04:57.011Z,33.60
2018-04-10T08:07:25.090Z,30.70
2018-04-10T08:09:53.167Z,35.45
2018-04-10T08:12:21.227Z,43.67
2018-04-10T08:14:49.297Z,35.93
2018-04-10T08:17:17.352Z,37.13
2018-04-10T08:19:45.423Z,32.30
2018-04-10T08:22:13.501Z,40.47
2018-04-10T08:24:41.551Z,34.57
2018-04-10T08:27:09.628Z,38.22
2018-04-10T08:29:37.695Z,40.27
2018-04-10T08:32:05.752Z,49.30
2018-04-10T08:34:33.824Z,43.57
2018-04-10T08:37:01.880Z,32.92
2018-04-10T08:39:29.952Z,35.23
2018-04-10T08:41:58.024Z,32.97
2018-04-10T08:44:26.092Z,39.73
2018-04-10T08:46:54.148Z,39.87
2018-04-10T08:49:22.244Z,43.77
2018-04-10T08:51:50.312Z,38.53
2018-04-10T08:54:18.372Z,41.83
2018-04-10T08:56:46.439Z,40.93
2018-04-10T08:59:14.505Z,47.83
2018-04-10T09:01:42.588Z,39.10
2018-04-10T09:04:10.651Z,38.93
2018-04-10T09:06:38.726Z,34.60
2018-04-10T09:09:06.785Z,42.90
2018-04-10T09:11:34.856Z,37.57
2018-04-10T09:14:02.928Z,35.40
2018-04-10T09:16:30.993Z,37.07
2018-04-10T09:18:59.067Z,32.63
2018-04-10T09:21:27.127Z,32.87
2018-04-10T09:23:55.204Z,37.57
2018-04-10T09:26:23.269Z,31.93
2018-04-10T09:28:52.444Z,40.37
2018-04-10T09:31:20.509Z,35.43
2018-04-10T09:33:48.568Z,39.53
2018-04-10T09:36:16.640Z,33.40
2018-04-10T09:38:44.699Z,33.00
2018-04-10T09:41:12.780Z,37.17
2018-04-10T09:43:40.890Z,35.03
2018-04-10T09:46:08.915Z,34.28
2018-04-10T09:48:36.982Z,38.10
2018-04-10T09:51:05.040Z,39.13
2018-04-10T09:53:33.101Z,31.10
2018-04-10T09:56:01.164Z,41.85
2018-04-10T09:58:29.232Z,32.10
2018-04-10T10:00:57.310Z,28.35
2018-04-10T10:03:25.380Z,30.57
2018-04-10T10:05:54.289Z,30.43
2018-04-10T10:08:22.348Z,31.50
2018-04-10T10:10:50.409Z,24.90
2018-04-10T10:13:18.468Z,30.50
2018-04-10T10:15:46.533Z,35.33
2018-04-10T10:18:14.600Z,34.07
2018-04-10T10:20:42.676Z,35.77
2018-04-10T10:23:10.737Z,59.67
2018-04-10T10:25:38.803Z,35.87
2018-04-10T10:28:06.868Z,32.42
2018-04-10T10:30:34.944Z,40.10
2018-04-10T10:33:03.016Z,34.33
2018-04-10T10:35:31.075Z,37.50
2018-04-10T10:37:59.139Z,28.07
2018-04-10T10:40:27.208Z,32.00
2018-04-10T10:42:55.267Z,32.43
2018-04-10T10:45:23.338Z,30.50
2018-04-10T10:47:52.152Z,28.30
2018-04-10T10:50:20.219Z,27.47
2018-04-10T10:52:48.289Z,32.60
2018-04-10T10:55:16.355Z,30.17
2018-04-10T10:57:44.410Z,36.47
2018-04-10T11:00:14.783Z,35.77
2018-04-10T11:02:42.828Z,43.63
2018-04-10T11:05:11.028Z,48.73
2018-04-10T11:07:39.085Z,41.00
2018-04-10T11:10:07.168Z,46.78
2018-04-10T11:12:35.228Z,38.33
2018-04-10T11:15:03.292Z,39.97
2018-04-10T11:17:31.352Z,40.05
2018-04-10T11:19:59.404Z,41.15
2018-04-10T11:22:27.488Z,38.97
2018-04-10T11:24:55.550Z,41.60
2018-04-10T11:27:23.613Z,39.90
2018-04-10T11:29:52.256Z,47.03
2018-04-10T11:32:20.324Z,44.13
2018-04-10T11:34:48.383Z,30.90
2018-04-10T11:37:16.451Z,49.83
2018-04-10T11:39:44.521Z,31.20
2018-04-10T11:42:12.572Z,39.50
2018-04-10T11:44:40.639Z,36.07
2018-04-10T11:47:08.705Z,38.13
2018-04-10T11:49:36.759Z,43.13
2018-04-10T11:52:04.827Z,40.90
2018-04-10T11:54:32.900Z,38.70
2018-04-10T11:57:00.964Z,41.50
2018-04-10T11:59:29.025Z,43.23
2018-04-10T12:01:57.098Z,64.20
2018-04-10T12:04:25.162Z,42.10
2018-04-10T12:06:53.229Z,30.90
2018-04-10T12:09:21.289Z,31.70
2018-04-10T12:11:49.370Z,39.33
2018-04-10T12:14:17.428Z,35.23
2018-04-10T12:16:45.496Z,31.70
2018-04-10T12:19:13.569Z,36.27
2018-04-10T12:21:41.633Z,45.97
2018-04-10T12:24:09.697Z,40.95
2018-04-10T12:26:37.768Z,36.80
2018-04-10T12:29:05.826Z,46.35
2018-04-10T12:31:33.893Z,34.23
2018-04-10T12:34:01.949Z,32.05
2018-04-10T12:36:30.019Z,52.63
2018-04-10T12:38:58.084Z,33.47
2018-04-10T12:41:26.159Z,36.77
2018-04-10T12:43:54.223Z,42.03
2018-04-10T12:46:22.300Z,34.17
2018-04-10T12:48:50.361Z,36.75
2018-04-10T12:51:18.423Z,30.97
2018-04-10T12:53:46.484Z,29.17
2018-04-10T12:56:14.555Z,33.20
2018-04-10T12:58:42.624Z,33.67
2018-04-10T13:01:10.716Z,32.93
2018-04-10T13:03:38.775Z,31.67
2018-04-10T13:06:06.840Z,36.37
2018-04-10T13:08:34.905Z,31.37
2018-04-10T13:11:02.976Z,30.25
2018-04-10T13:13:31.040Z,32.50
2018-04-10T13:15:59.107Z,26.23
2018-04-10T13:18:27.169Z,28.07
2018-04-10T13:20:55.249Z,24.83
2018-04-10T13:23:23.307Z,28.80
2018-04-10T13:25:52.145Z,28.30
2018-04-10T13:28:20.226Z,32.93
2018-04-10T13:30:48.275Z,35.87
2018-04-10T13:33:16.348Z,31.33
2018-04-10T13:35:44.407Z,43.13
2018-04-10T13:38:12.476Z,28.50
2018-04-10T13:40:40.547Z,22.13
2018-04-10T13:43:08.628Z,22.17
2018-04-10T13:45:36.696Z,19.07
2018-04-10T13:48:04.767Z,27.10
2018-04-10T13:50:32.824Z,26.13
2018-04-10T13:53:00.908Z,23.17
2018-04-10T13:55:28.963Z,17.83
2018-04-10T13:57:57.040Z,18.35
2018-04-10T14:00:26.171Z,18.00
2018-04-10T14:02:54.236Z,16.83
2018-04-10T14:05:22.919Z,18.20
2018-04-10T14:07:53.406Z,13.60
2018-04-10T14:10:21.468Z,10.50
2018-04-10T14:12:49.528Z,10.70
2018-04-10T14:15:17.589Z,20.90
2018-04-10T14:17:45.648Z,11.63
2018-04-10T14:20:13.820Z,10.70
2018-04-10T14:22:41.885Z,20.80
2018-04-10T14:25:10.792Z,23.92
2018-04-10T14:27:39.089Z,12.27
2018-04-10T14:30:07.140Z,9.57
2018-04-10T14:32:35.208Z,9.73
2018-04-10T14:35:03.273Z,13.07
2018-04-10T14:37:31.359Z,18.23
2018-04-10T14:39:59.413Z,17.75
2018-04-10T14:42:27.464Z,25.43
2018-04-10T14:44:55.532Z,19.83
2018-04-10T14:47:23.596Z,26.03
2018-04-10T14:49:52.369Z,18.92
2018-04-10T14:52:20.457Z,9.30
2018-04-10T14:54:48.516Z,11.87
2018-04-10T14:57:16.576Z,14.33
2018-04-10T14:59:45.942Z,13.43
2018-04-10T15:02:14.019Z,18.63
2018-04-10T15:04:42.094Z,8.70
2018-04-10T15:07:10.305Z,5.40
2018-04-10T15:09:38.576Z,9.07
2018-04-10T15:12:06.707Z,5.18
2018-04-10T15:14:35.049Z,20.53
2018-04-10T15:17:03.139Z,10.38
2018-04-10T15:19:31.214Z,11.30
2018-04-10T15:21:59.354Z,5.67
2018-04-10T15:24:27.404Z,10.20
2018-04-10T15:26:55.484Z,15.20
2018-04-10T15:29:23.657Z,10.53
2018-04-10T15:31:52.157Z,11.67
2018-04-10T15:34:20.265Z,5.63
2018-04-10T15:36:48.499Z,6.90
2018-04-10T15:39:16.582Z,4.30
2018-04-10T15:41:44.667Z,5.17
2018-04-10T15:44:12.753Z,8.63
2018-04-10T15:46:40.796Z,3.40
2018-04-10T15:49:10.384Z,5.32
2018-04-10T15:51:38.564Z,11.33
2018-04-10T15:54:06.651Z,27.45
2018-04-10T15:56:34.886Z,3.37
2018-04-10T15:59:03.883Z,10.00
2018-04-10T16:01:31.953Z,7.30
2018-04-10T16:04:01.156Z,17.15
2018-04-10T16:06:29.202Z,4.13
2018-04-10T16:08:57.312Z,5.85
2018-04-10T16:11:26.432Z,12.80
2018-04-10T16:13:54.550Z,7.50
2018-04-10T16:16:22.622Z,16.23
2018-04-10T16:18:50.783Z,7.30
2018-04-10T16:21:18.836Z,7.97
2018-04-10T16:23:46.923Z,8.60
2018-04-10T16:26:14.980Z,3.97
2018-04-10T16:28:43.777Z,10.40
2018-04-10T16:31:11.839Z,10.60
2018-04-10T16:33:40.016Z,4.50
2018-04-10T16:36:08.092Z,8.20
2018-04-10T16:38:36.175Z,4.73
2018-04-10T16:41:04.523Z,7.47
2018-04-10T16:43:32.591Z,13.63
2018-04-10T16:46:00.688Z,5.78
2018-04-10T16:48:28.879Z,7.40
2018-04-10T16:50:56.930Z,12.85
2018-04-10T16:53:24.999Z,5.83
2018-04-10T16:55:53.477Z,4.23
2018-04-10T16:58:21.565Z,8.40
2018-04-10T17:00:50.339Z,4.40
2018-04-10T17:03:18.425Z,18.40
2018-04-10T17:05:46.490Z,4.73
2018-04-10T17:08:15.645Z,4.60
2018-04-10T17:10:43.916Z,4.70
2018-04-10T17:13:11.992Z,6.67
2018-04-10T17:15:43.139Z,9.47
2018-04-10T17:18:11.243Z,6.55
2018-04-10T17:20:39.312Z,5.37
2018-04-10T17:23:07.564Z,9.93
2018-04-10T17:25:35.692Z,7.13
2018-04-10T17:28:03.797Z,9.60
2018-04-10T17:30:32.716Z,9.60
2018-04-10T17:33:01.893Z,3.50
2018-04-10T17:35:29.948Z,5.03
2018-04-10T17:37:58.008Z,3.70
2018-04-10T17:40:26.391Z,4.33
2018-04-10T17:42:54.472Z,6.47
2018-04-10T17:45:22.628Z,5.20
2018-04-10T17:47:50.822Z,4.43
2018-04-10T17:50:18.886Z,4.20
2018-04-10T17:52:47.029Z,5.90
2018-04-10T17:55:15.928Z,4.90
2018-04-10T17:57:43.980Z,4.20
2018-04-10T18:00:13.017Z,5.83
2018-04-10T18:02:41.157Z,9.10
2018-04-10T18:05:09.235Z,25.15
2018-04-10T18:07:37.296Z,5.62
2018-04-10T18:10:06.160Z,11.05
2018-04-10T18:12:34.207Z,4.67
2018-04-10T18:15:02.268Z,8.27
2018-04-10T18:17:30.369Z,11.30
2018-04-10T18:19:58.479Z,8.00
2018-04-10T18:22:26.570Z,9.50
2018-04-10T18:24:54.623Z,3.67
2018-04-10T18:27:22.710Z,11.40
2018-04-10T18:29:52.495Z,7.63
2018-04-10T18:32:20.559Z,6.10
2018-04-10T18:34:49.082Z,3.70
2018-04-10T18:37:17.172Z,15.70
2018-04-10T18:39:45.227Z,4.83
2018-04-10T18:42:13.284Z,9.60
2018-04-10T18:44:41.356Z,6.87
2018-04-10T18:47:09.527Z,10.13
2018-04-10T18:49:37.596Z,3.67
2018-04-10T18:52:05.652Z,10.40
2018-04-10T18:54:33.967Z,9.30
2018-04-10T18:57:02.007Z,3.33
2018-04-10T18:59:30.079Z,14.40
2018-04-10T19:01:58.146Z,10.23
2018-04-10T19:04:26.207Z,4.87
2018-04-10T19:06:55.035Z,9.90
2018-04-10T19:09:23.216Z,11.83
2018-04-10T19:11:52.383Z,8.73
2018-04-10T19:14:20.478Z,6.50
2018-04-10T19:16:48.757Z,34.83
2018-04-10T19:19:16.824Z,12.73
2018-04-10T19:21:44.864Z,9.87
2018-04-10T19:24:12.933Z,13.93
2018-04-10T19:26:41.000Z,14.93
2018-04-10T19:29:09.367Z,21.57
2018-04-10T19:31:37.681Z,16.13
2018-04-10T19:34:05.849Z,18.00
2018-04-10T19:36:34.932Z,16.43
2018-04-10T19:39:03.017Z,16.33
2018-04-10T19:41:31.219Z,18.07
2018-04-10T19:43:59.343Z,17.20
2018-04-10T19:46:27.433Z,14.70
2018-04-10T19:48:55.525Z,17.37
2018-04-10T19:51:23.709Z,17.53
2018-04-10T19:53:52.268Z,13.25
2018-04-10T19:56:20.563Z,9.70
2018-04-10T19:58:48.752Z,11.87
2018-04-10T20:01:16.844Z,8.83
2018-04-10T20:03:44.944Z,9.30
2018-04-10T20:06:13.128Z,11.10
2018-04-10T20:08:41.261Z,22.07
2018-04-10T20:11:09.327Z,10.67
2018-04-10T20:13:37.476Z,8.73
2018-04-10T20:16:05.660Z,11.82
2018-04-10T20:18:33.768Z,5.33
2018-04-10T20:21:02.262Z,8.73
2018-04-10T20:23:30.327Z,6.27
2018-04-10T20:25:58.388Z,6.18
2018-04-10T20:28:26.889Z,11.93
2018-04-10T20:30:54.939Z,5.47
2018-04-10T20:33:23.128Z,7.70
2018-04-10T20:35:52.363Z,8.10
2018-04-10T20:38:20.461Z,9.03
2018-04-10T20:40:48.661Z,7.27
2018-04-10T20:43:16.768Z,8.47
2018-04-10T20:45:44.934Z,11.23
2018-04-10T20:48:14.060Z,9.10
2018-04-10T20:50:42.404Z,8.65
2018-04-10T20:53:10.592Z,12.63
2018-04-10T20:55:38.808Z,6.47
2018-04-10T20:58:07.860Z,10.10
2018-04-10T21:00:36.158Z,13.50
2018-04-10T21:03:04.298Z,11.55
2018-04-10T21:05:32.424Z,10.37
2018-04-10T21:08:00.540Z,10.23
2018-04-10T21:10:28.672Z,23.23
2018-04-10T21:12:56.811Z,17.80
2018-04-10T21:15:24.867Z,12.77
2018-04-10T21:17:52.935Z,13.70
2018-04-10T21:20:20.996Z,15.00
2018-04-10T21:22:49.063Z,15.50
2018-04-10T21:25:17.125Z,16.27
2018-04-10T21:27:45.192Z,19.15
2018-04-10T21:30:13.252Z,14.07
2018-04-10T21:32:41.334Z,18.05
2018-04-10T21:35:09.423Z,13.93
2018-04-10T21:37:37.519Z,20.97
2018-04-10T21:40:05.540Z,16.23
2018-04-10T21:42:39.032Z,17.13
2018-04-10T21:45:07.095Z,14.35
2018-04-10T21:47:35.162Z,13.82
2018-04-10T21:50:03.220Z,17.53
2018-04-10T21:52:31.288Z,18.13
2018-04-10T21:54:59.345Z,17.63
2018-04-10T21:57:27.420Z,17.67
2018-04-10T21:59:55.507Z,13.03
2018-04-10T22:02:23.628Z,18.77
2018-04-10T22:04:52.351Z,30.05
2018-04-10T22:07:20.423Z,24.53
2018-04-10T22:09:48.492Z,26.43
2018-04-10T22:12:16.544Z,21.83
2018-04-10T22:14:45.407Z,18.83
2018-04-10T22:17:13.465Z,27.90
2018-04-10T22:19:41.540Z,21.00
2018-04-10T22:22:09.600Z,21.83
2018-04-10T22:24:37.676Z,20.80
2018-04-10T22:27:05.732Z,24.43
2018-04-10T22:29:33.801Z,19.00
2018-04-10T22:32:01.889Z,23.17
2018-04-10T22:34:29.928Z,20.63
2018-04-10T22:36:58.000Z,20.40
2018-04-10T22:39:26.107Z,18.92
2018-04-10T22:41:54.157Z,19.07
2018-04-10T22:44:22.232Z,18.35
2018-04-10T22:46:50.299Z,22.07
2018-04-10T22:49:18.356Z,16.20
2018-04-10T22:51:46.433Z,23.27
2018-04-10T22:54:30.500Z,21.57
2018-04-10T22:56:58.555Z,23.57
2018-04-10T22:59:26.612Z,23.13
2018-04-10T23:01:54.688Z,20.00
2018-04-10T23:04:22.748Z,29.00
2018-04-10T23:06:50.828Z,22.20
2018-04-10T23:09:18.882Z,19.33
2018-04-10T23:11:46.956Z,22.17
2018-04-10T23:14:15.017Z,23.07
2018-04-10T23:16:43.092Z,22.33
2018-04-10T23:19:11.152Z,22.55
2018-04-10T23:21:39.224Z,28.27
2018-04-10T23:24:07.285Z,26.10
2018-04-10T23:26:35.352Z,26.00
2018-04-10T23:29:03.412Z,26.08
2018-04-10T23:31:31.496Z,25.87
2018-04-10T23:33:59.560Z,22.80
2018-04-10T23:36:27.636Z,25.67
2018-04-10T23:38:55.698Z,30.10
2018-04-10T23:41:23.776Z,30.20
2018-04-10T23:43:52.209Z,31.87
2018-04-10T23:46:20.273Z,28.30
2018-04-10T23:48:48.339Z,31.47
2018-04-10T23:51:16.428Z,29.27
2018-04-10T23:53:44.491Z,38.43
2018-04-10T23:56:13.423Z,35.20
2018-04-10T23:58:41.492Z,34.70
